createdAt,value
2023-02-16T00:00:53.639Z,20.83
2023-02-16T00:03:22.265Z,17.43
2023-02-16T00:05:50.345Z,17.17
2023-02-16T00:08:18.559Z,15.30
2023-02-16T00:11:04.851Z,13.63
2023-02-16T00:13:53.051Z,14.33
2023-02-16T00:16:21.750Z,12.97
2023-02-16T00:18:48.952Z,14.57
2023-02-16T00:21:16.527Z,15.13
2023-02-16T00:23:45.217Z,15.77
2023-02-16T00:26:15.283Z,16.93
2023-02-16T00:28:43.706Z,13.83
2023-02-16T00:31:17.850Z,16.53
2023-02-16T00:33:45.470Z,13.77
2023-02-16T00:36:12.453Z,14.80
2023-02-16T00:38:39.317Z,17.53
2023-02-16T00:41:35.818Z,14.53
2023-02-16T00:44:05.601Z,14.87
2023-02-16T00:46:32.675Z,15.93
2023-02-16T00:48:59.595Z,15.57
2023-02-16T00:51:26.941Z,12.87
2023-02-16T00:53:54.003Z,14.33
2023-02-16T00:56:22.692Z,13.63
2023-02-16T00:58:52.210Z,15.13
2023-02-16T01:01:24.442Z,15.10
2023-02-16T01:03:51.523Z,16.97
2023-02-16T01:06:36.856Z,18.57
2023-02-16T01:09:31.831Z,13.10
2023-02-16T01:12:00.381Z,16.47
2023-02-16T01:14:27.355Z,14.20
2023-02-16T01:16:54.218Z,19.33
2023-02-16T01:19:21.085Z,17.33
2023-02-16T01:21:48.047Z,18.37
2023-02-16T01:24:15.096Z,14.53
2023-02-16T01:26:46.459Z,18.67
2023-02-16T01:29:19.343Z,16.83
2023-02-16T01:31:48.786Z,17.33
2023-02-16T01:34:15.886Z,16.30
2023-02-16T01:36:45.440Z,18.20
2023-02-16T01:39:14.225Z,18.97
2023-02-16T01:41:58.832Z,18.23
2023-02-16T01:44:34.341Z,15.90
2023-02-16T01:47:05.518Z,14.60
2023-02-16T01:49:32.460Z,14.93
2023-02-16T01:52:06.742Z,15.00
2023-02-16T01:54:39.441Z,17.50
2023-02-16T01:57:18.881Z,18.60
2023-02-16T02:02:41.390Z,17.80
2023-02-16T02:05:35.101Z,16.63
2023-02-16T02:08:13.259Z,12.67
2023-02-16T02:10:50.482Z,15.50
2023-02-16T02:13:21.747Z,14.07
2023-02-16T02:15:49.784Z,12.97
2023-02-16T02:18:18.121Z,13.47
2023-02-16T02:21:16.151Z,15.13
2023-02-16T02:24:02.832Z,13.77
2023-02-16T02:27:07.449Z,13.10
2023-02-16T02:29:57.227Z,12.20
2023-02-16T02:32:35.435Z,10.33
2023-02-16T02:35:20.419Z,10.20
2023-02-16T02:37:54.548Z,10.07
2023-02-16T02:40:32.821Z,10.47
2023-02-16T02:43:13.794Z,12.77
2023-02-16T02:45:47.641Z,10.07
2023-02-16T02:48:15.106Z,12.60
2023-02-16T02:51:07.055Z,9.30
2023-02-16T02:53:39.973Z,11.07
2023-02-16T02:56:28.201Z,10.77
2023-02-16T02:59:21.331Z,10.20
2023-02-16T03:01:54.114Z,10.87
2023-02-16T03:04:25.501Z,9.47
2023-02-16T03:06:57.141Z,8.60
2023-02-16T03:09:24.876Z,9.63
2023-02-16T03:12:13.391Z,9.83
2023-02-16T03:14:46.062Z,9.10
2023-02-16T03:17:34.125Z,9.47
2023-02-16T03:20:22.411Z,9.83
2023-02-16T03:23:08.807Z,11.43
2023-02-16T03:25:56.871Z,10.37
2023-02-16T03:28:45.397Z,12.03
2023-02-16T03:31:18.506Z,10.13
2023-02-16T03:33:47.095Z,9.37
2023-02-16T03:36:14.273Z,8.93
2023-02-16T03:38:41.338Z,9.53
2023-02-16T03:41:08.196Z,10.23
2023-02-16T03:43:35.091Z,10.27
2023-02-16T03:46:02.127Z,10.30
2023-02-16T03:48:30.357Z,10.53
2023-02-16T03:50:57.670Z,10.20
2023-02-16T03:53:24.546Z,10.37
2023-02-16T03:55:51.441Z,11.07
2023-02-16T03:58:21.168Z,10.07
2023-02-16T04:00:48.292Z,10.00
2023-02-16T04:03:15.526Z,10.50
2023-02-16T04:05:44.310Z,11.57
2023-02-16T04:08:11.257Z,11.87
2023-02-16T04:10:39.281Z,9.53
2023-02-16T04:13:06.380Z,10.93
2023-02-16T04:15:33.583Z,9.93
2023-02-16T04:18:00.592Z,10.73
2023-02-16T04:20:30.263Z,10.90
2023-02-16T04:22:59.040Z,11.13
2023-02-16T04:25:26.008Z,11.03
2023-02-16T04:27:53.465Z,12.07
2023-02-16T04:30:23.179Z,9.90
2023-02-16T04:32:50.255Z,10.10
2023-02-16T04:35:17.628Z,10.90
2023-02-16T04:37:45.185Z,10.03
2023-02-16T04:40:15.039Z,11.33
2023-02-16T04:42:42.428Z,10.47
2023-02-16T04:45:10.327Z,11.30
2023-02-16T04:47:37.451Z,10.07
2023-02-16T04:50:05.495Z,9.07
2023-02-16T04:52:32.446Z,10.40
2023-02-16T04:54:59.448Z,10.53
2023-02-16T04:57:27.708Z,9.70
2023-02-16T04:59:54.983Z,11.40
2023-02-16T05:02:21.802Z,11.03
2023-02-16T05:04:48.674Z,10.50
2023-02-16T05:07:15.522Z,11.17
2023-02-16T05:09:42.376Z,10.80
2023-02-16T05:12:29.658Z,12.07
2023-02-16T05:14:57.858Z,12.03
2023-02-16T05:17:26.567Z,13.03
2023-02-16T05:19:55.424Z,10.30
2023-02-16T05:22:22.790Z,10.33
2023-02-16T05:24:50.469Z,10.77
2023-02-16T05:27:18.939Z,11.83
2023-02-16T05:29:46.123Z,10.80
2023-02-16T05:32:14.489Z,11.87
2023-02-16T05:34:41.541Z,11.17
2023-02-16T05:37:08.407Z,11.13
2023-02-16T05:39:35.239Z,10.83
2023-02-16T05:42:02.522Z,10.60
2023-02-16T05:44:29.841Z,11.73
2023-02-16T05:46:56.748Z,11.70
2023-02-16T05:49:25.858Z,12.37
2023-02-16T05:51:52.889Z,14.07
2023-02-16T05:54:19.791Z,12.20
2023-02-16T05:56:47.913Z,13.17
2023-02-16T05:59:16.085Z,13.87
2023-02-16T06:01:43.972Z,13.33
2023-02-16T06:04:14.597Z,12.77
2023-02-16T06:06:43.836Z,12.03
2023-02-16T06:09:10.719Z,10.60
2023-02-16T06:11:37.623Z,12.33
2023-02-16T06:14:06.453Z,12.80
2023-02-16T06:16:34.993Z,11.97
2023-02-16T06:19:02.765Z,14.37
2023-02-16T06:21:30.250Z,11.77
2023-02-16T06:23:58.786Z,11.77
2023-02-16T06:26:25.993Z,11.57
2023-02-16T06:28:53.362Z,12.10
2023-02-16T06:31:20.921Z,14.13
2023-02-16T06:33:48.046Z,12.43
2023-02-16T06:36:15.435Z,11.70
2023-02-16T06:38:42.778Z,12.63
2023-02-16T06:41:11.222Z,12.37
2023-02-16T06:43:38.366Z,12.03
2023-02-16T06:46:05.235Z,13.50
2023-02-16T06:48:32.055Z,13.03
2023-02-16T06:50:58.929Z,14.07
2023-02-16T06:53:25.816Z,13.23
2023-02-16T06:55:52.798Z,13.07
2023-02-16T06:58:21.000Z,13.57
2023-02-16T07:00:48.136Z,16.20
2023-02-16T07:03:15.158Z,16.07
2023-02-16T07:05:44.110Z,15.23
2023-02-16T07:08:11.055Z,13.30
2023-02-16T07:10:49.441Z,14.00
2023-02-16T07:13:16.941Z,13.40
2023-02-16T07:15:45.220Z,12.67
2023-02-16T07:18:12.383Z,13.50
2023-02-16T07:20:39.335Z,14.10
2023-02-16T07:23:06.690Z,14.27
2023-02-16T07:25:35.295Z,13.83
2023-02-16T07:28:02.913Z,12.73
2023-02-16T07:30:29.911Z,14.70
2023-02-16T07:32:58.107Z,14.83
2023-02-16T07:35:25.070Z,14.50
2023-02-16T07:37:51.978Z,12.33
2023-02-16T07:40:19.087Z,14.67
2023-02-16T07:42:45.976Z,16.13
2023-02-16T07:45:13.196Z,13.97
2023-02-16T07:47:40.171Z,16.87
2023-02-16T07:50:09.332Z,12.93
2023-02-16T07:52:36.264Z,13.97
2023-02-16T07:55:03.655Z,16.57
2023-02-16T07:57:30.499Z,13.63
2023-02-16T07:59:57.692Z,13.83
2023-02-16T08:02:24.817Z,13.63
2023-02-16T08:04:54.461Z,12.60
2023-02-16T08:07:22.862Z,13.20
2023-02-16T08:09:50.028Z,13.03
2023-02-16T08:12:17.811Z,12.57
2023-02-16T08:14:46.536Z,13.07
2023-02-16T08:17:13.699Z,14.40
2023-02-16T08:19:41.139Z,12.40
2023-02-16T08:22:09.044Z,12.37
2023-02-16T08:24:37.426Z,13.87
2023-02-16T08:27:04.843Z,16.90
2023-02-16T08:29:32.182Z,13.30
2023-02-16T08:31:59.260Z,14.93
2023-02-16T08:34:27.359Z,14.63
2023-02-16T08:36:56.716Z,15.10
2023-02-16T08:39:25.968Z,12.77
2023-02-16T08:41:54.952Z,13.53
2023-02-16T08:44:24.297Z,14.07
2023-02-16T08:46:52.770Z,16.70
2023-02-16T08:49:22.168Z,15.30
2023-02-16T08:51:52.335Z,16.10
2023-02-16T08:54:21.253Z,13.53
2023-02-16T08:56:49.563Z,11.17
2023-02-16T08:59:19.855Z,13.97
2023-02-16T09:01:46.972Z,15.07
2023-02-16T09:04:14.753Z,12.03
2023-02-16T09:06:44.346Z,11.07
2023-02-16T09:09:13.009Z,13.30
2023-02-16T09:11:40.250Z,11.10
2023-02-16T09:14:07.153Z,10.93
2023-02-16T09:16:38.817Z,12.93
2023-02-16T09:19:06.158Z,10.57
2023-02-16T09:21:33.543Z,13.70
2023-02-16T09:24:02.415Z,14.13
2023-02-16T09:26:32.547Z,14.23
2023-02-16T09:29:00.114Z,11.23
2023-02-16T09:31:29.060Z,9.47
2023-02-16T09:34:01.111Z,8.50
2023-02-16T09:36:28.497Z,9.57
2023-02-16T09:38:56.121Z,7.60
2023-02-16T09:41:36.779Z,8.57
2023-02-16T09:44:12.351Z,8.97
2023-02-16T09:46:40.983Z,8.00
2023-02-16T09:49:23.876Z,9.80
2023-02-16T09:51:59.907Z,8.87
2023-02-16T09:54:34.880Z,8.50
2023-02-16T09:57:08.647Z,7.00
2023-02-16T09:59:43.981Z,8.40
2023-02-16T10:02:34.539Z,7.10
2023-02-16T10:05:17.204Z,6.93
2023-02-16T10:08:00.350Z,7.13
2023-02-16T10:10:40.216Z,7.03
2023-02-16T10:13:13.248Z,7.97
2023-02-16T10:15:43.923Z,7.03
2023-02-16T10:18:20.000Z,7.47
2023-02-16T10:20:53.626Z,6.77
2023-02-16T10:23:32.969Z,6.80
2023-02-16T10:26:06.415Z,7.17
2023-02-16T10:28:41.199Z,6.83
2023-02-16T10:31:14.797Z,6.03
2023-02-16T10:33:44.129Z,6.73
2023-02-16T10:36:28.109Z,8.80
2023-02-16T10:39:02.466Z,7.00
2023-02-16T10:41:33.426Z,6.30
2023-02-16T10:44:08.416Z,6.27
2023-02-16T10:46:40.449Z,8.03
2023-02-16T10:49:11.150Z,6.63
2023-02-16T10:51:41.605Z,8.27
2023-02-16T10:54:14.846Z,6.43
2023-02-16T10:56:49.623Z,7.07
2023-02-16T10:59:19.394Z,6.17
2023-02-16T11:01:48.365Z,6.77
2023-02-16T11:04:37.453Z,7.53
2023-02-16T11:07:10.768Z,6.27
2023-02-16T11:09:39.303Z,7.23
2023-02-16T11:12:24.244Z,6.13
2023-02-16T11:14:54.162Z,7.37
2023-02-16T11:17:23.878Z,5.50
2023-02-16T11:19:54.202Z,5.67
2023-02-16T11:22:41.510Z,6.43
2023-02-16T11:25:22.029Z,5.57
2023-02-16T11:27:54.734Z,6.03
2023-02-16T11:30:29.734Z,8.10
2023-02-16T11:32:56.925Z,5.00
2023-02-16T11:35:23.910Z,6.93
2023-02-16T11:37:52.368Z,7.33
2023-02-16T11:40:22.942Z,6.13
2023-02-16T11:42:52.491Z,6.60
2023-02-16T11:45:31.249Z,6.03
2023-02-16T11:48:01.597Z,5.83
2023-02-16T11:50:29.935Z,5.77
2023-02-16T11:53:13.565Z,7.73
2023-02-16T11:55:43.133Z,5.23
2023-02-16T11:58:19.677Z,5.70
2023-02-16T12:01:06.077Z,5.47
2023-02-16T12:04:08.453Z,5.23
2023-02-16T12:06:49.805Z,5.70
2023-02-16T12:09:31.194Z,4.23
2023-02-16T12:12:08.663Z,6.93
2023-02-16T12:14:45.284Z,6.07
2023-02-16T12:17:41.619Z,6.33
2023-02-16T12:20:23.253Z,5.73
2023-02-16T12:22:56.578Z,5.33
2023-02-16T12:25:32.540Z,6.40
2023-02-16T12:28:13.403Z,4.50
2023-02-16T12:30:52.741Z,4.80
2023-02-16T12:33:35.394Z,4.90
2023-02-16T12:36:32.095Z,5.90
2023-02-16T12:39:08.521Z,4.50
2023-02-16T12:41:47.325Z,6.00
2023-02-16T12:44:18.071Z,8.17
2023-02-16T12:46:48.389Z,5.57
2023-02-16T12:49:21.112Z,5.63
2023-02-16T12:51:52.047Z,5.03
2023-02-16T12:54:23.913Z,5.10
2023-02-16T12:56:57.601Z,4.83
2023-02-16T12:59:30.613Z,5.50
2023-02-16T13:02:00.381Z,4.27
2023-02-16T13:04:43.275Z,4.20
2023-02-16T13:07:18.082Z,5.03
2023-02-16T13:09:57.841Z,4.80
2023-02-16T13:12:31.527Z,6.40
2023-02-16T13:15:06.441Z,5.20
2023-02-16T13:17:36.856Z,4.83
2023-02-16T13:20:04.996Z,5.33
2023-02-16T13:22:54.280Z,3.60
2023-02-16T13:25:46.002Z,7.10
2023-02-16T13:28:31.345Z,5.90
2023-02-16T13:31:22.465Z,5.43
2023-02-16T13:34:06.975Z,4.80
2023-02-16T13:36:54.202Z,4.80
2023-02-16T13:39:57.446Z,3.70
2023-02-16T13:42:47.775Z,4.00
2023-02-16T13:45:20.311Z,4.80
2023-02-16T13:47:47.470Z,3.97
2023-02-16T13:50:29.927Z,5.10
2023-02-16T13:52:58.719Z,3.90
2023-02-16T13:55:29.947Z,5.37
2023-02-16T13:58:05.673Z,3.77
2023-02-16T14:00:37.073Z,2.97
2023-02-16T14:03:12.315Z,4.97
2023-02-16T14:05:41.477Z,3.43
2023-02-16T14:08:23.649Z,3.77
2023-02-16T14:11:06.618Z,3.43
2023-02-16T14:13:45.204Z,6.37
2023-02-16T14:16:29.012Z,3.43
2023-02-16T14:18:58.916Z,3.30
2023-02-16T14:21:36.388Z,3.10
2023-02-16T14:24:06.337Z,3.97
2023-02-16T14:26:51.243Z,4.67
2023-02-16T14:29:20.877Z,3.27
2023-02-16T14:31:55.792Z,3.97
2023-02-16T14:34:28.574Z,3.63
2023-02-16T14:37:27.894Z,3.90
2023-02-16T14:40:08.969Z,4.63
2023-02-16T14:42:36.565Z,4.17
2023-02-16T14:45:18.785Z,4.80
2023-02-16T14:47:56.848Z,4.60
2023-02-16T14:50:44.812Z,4.73
2023-02-16T14:53:43.586Z,7.43
2023-02-16T14:56:42.725Z,6.00
2023-02-16T14:59:20.794Z,3.23
2023-02-16T15:01:47.954Z,5.10
2023-02-16T15:04:28.158Z,4.20
2023-02-16T15:06:57.032Z,5.40
2023-02-16T15:09:27.097Z,5.50
2023-02-16T15:12:15.952Z,4.40
2023-02-16T15:14:46.332Z,4.20
2023-02-16T15:17:26.943Z,4.93
2023-02-16T15:19:57.929Z,5.77
2023-02-16T15:22:26.284Z,6.13
2023-02-16T15:24:58.836Z,4.10
2023-02-16T15:27:26.087Z,5.27
2023-02-16T15:30:22.344Z,4.17
2023-02-16T15:32:52.268Z,3.73
2023-02-16T15:35:26.838Z,5.27
2023-02-16T15:38:01.734Z,3.20
2023-02-16T15:40:31.800Z,5.93
2023-02-16T15:43:07.475Z,5.27
2023-02-16T15:45:37.968Z,4.23
2023-02-16T15:48:26.843Z,3.30
2023-02-16T15:51:00.577Z,5.70
2023-02-16T15:53:39.090Z,6.87
2023-02-16T15:56:39.479Z,9.07
2023-02-16T15:59:22.275Z,9.40
2023-02-16T16:01:55.756Z,5.70
2023-02-16T16:04:24.711Z,5.77
2023-02-16T16:06:53.850Z,4.77
2023-02-16T16:09:25.482Z,5.00
2023-02-16T16:11:55.743Z,5.17
2023-02-16T16:14:23.453Z,5.77
2023-02-16T16:16:51.314Z,5.70
2023-02-16T16:19:20.688Z,5.43
2023-02-16T16:21:51.297Z,8.30
2023-02-16T16:24:33.922Z,8.10
2023-02-16T16:27:04.339Z,5.40
2023-02-16T16:29:37.178Z,6.37
2023-02-16T16:32:06.312Z,8.43
2023-02-16T16:34:36.281Z,7.77
2023-02-16T16:37:04.488Z,5.70
2023-02-16T16:39:35.962Z,9.17
2023-02-16T16:42:16.170Z,8.57
2023-02-16T16:44:44.712Z,5.60
2023-02-16T16:47:14.013Z,6.10
2023-02-16T16:49:49.679Z,6.40
2023-02-16T16:52:33.323Z,4.60
2023-02-16T16:55:02.018Z,5.13
2023-02-16T16:57:30.275Z,4.87
2023-02-16T16:59:57.854Z,5.10
2023-02-16T17:02:24.745Z,5.10
2023-02-16T17:04:51.646Z,4.67
2023-02-16T17:07:18.481Z,6.53
2023-02-16T17:09:45.282Z,4.27
2023-02-16T17:12:13.426Z,5.23
2023-02-16T17:14:40.696Z,3.27
2023-02-16T17:17:10.302Z,5.03
2023-02-16T17:19:37.130Z,5.17
2023-02-16T17:22:11.263Z,3.63
2023-02-16T17:24:38.245Z,4.83
2023-02-16T17:27:05.619Z,6.70
2023-02-16T17:29:33.871Z,6.30
2023-02-16T17:32:01.019Z,5.80
2023-02-16T17:34:31.012Z,5.97
2023-02-16T17:36:58.132Z,5.00
2023-02-16T17:39:25.258Z,4.43
2023-02-16T17:41:52.305Z,4.53
2023-02-16T17:44:19.164Z,4.30
2023-02-16T17:46:47.599Z,3.63
2023-02-16T17:49:14.795Z,4.27
2023-02-16T17:51:41.847Z,5.60
2023-02-16T17:54:08.977Z,4.00
2023-02-16T17:56:37.191Z,5.30
2023-02-16T17:59:04.161Z,3.57
2023-02-16T18:01:31.808Z,5.60
2023-02-16T18:04:00.158Z,4.87
2023-02-16T18:06:29.116Z,3.67
2023-02-16T18:08:56.546Z,3.83
2023-02-16T18:11:23.458Z,3.93
2023-02-16T18:13:50.434Z,4.90
2023-02-16T18:16:19.115Z,6.80
2023-02-16T18:18:46.075Z,5.50
2023-02-16T18:21:14.483Z,4.03
2023-02-16T18:23:42.233Z,4.60
2023-02-16T18:26:12.349Z,7.13
2023-02-16T18:28:39.166Z,5.87
2023-02-16T18:31:08.315Z,7.30
2023-02-16T18:33:35.408Z,5.50
2023-02-16T18:36:03.591Z,5.53
2023-02-16T18:38:31.985Z,7.67
2023-02-16T18:40:58.850Z,4.67
2023-02-16T18:43:25.905Z,5.83
2023-02-16T18:45:52.884Z,6.70
2023-02-16T18:48:19.726Z,5.90
2023-02-16T18:50:46.584Z,4.83
2023-02-16T18:53:13.599Z,5.17
2023-02-16T18:55:41.834Z,5.77
2023-02-16T18:58:11.364Z,6.63
2023-02-16T19:00:38.216Z,6.37
2023-02-16T19:03:05.257Z,5.83
2023-02-16T19:05:32.670Z,5.33
2023-02-16T19:07:59.714Z,8.40
2023-02-16T19:10:26.660Z,6.50
2023-02-16T19:12:55.119Z,6.57
2023-02-16T19:15:22.353Z,5.73
2023-02-16T19:17:49.217Z,5.37
2023-02-16T19:20:18.453Z,6.00
2023-02-16T19:22:45.869Z,4.87
2023-02-16T19:25:13.070Z,4.90
2023-02-16T19:27:39.854Z,4.63
2023-02-16T19:30:08.943Z,6.17
2023-02-16T19:32:35.880Z,6.10
2023-02-16T19:35:03.834Z,5.67
2023-02-16T19:37:30.841Z,6.60
2023-02-16T19:39:57.663Z,7.20
2023-02-16T19:42:24.510Z,6.93
2023-02-16T19:44:51.573Z,7.43
2023-02-16T19:47:19.801Z,7.37
2023-02-16T19:49:46.709Z,8.70
2023-02-16T19:52:13.629Z,10.93
2023-02-16T19:54:40.613Z,6.30
2023-02-16T19:57:07.438Z,6.83
2023-02-16T19:59:34.485Z,5.83
2023-02-16T20:02:01.532Z,7.80
2023-02-16T20:04:29.861Z,6.33
2023-02-16T20:06:56.789Z,5.87
2023-02-16T20:09:24.378Z,6.20
2023-02-16T20:11:51.760Z,6.43
2023-02-16T20:14:18.578Z,6.90
2023-02-16T20:16:45.786Z,7.60
2023-02-16T20:19:12.982Z,6.83
2023-02-16T20:21:44.040Z,6.13
2023-02-16T20:24:11.257Z,7.23
2023-02-16T20:26:41.428Z,5.50
2023-02-16T20:29:09.830Z,6.37
2023-02-16T20:31:39.291Z,5.17
2023-02-16T20:34:07.742Z,5.13
2023-02-16T20:36:35.434Z,5.60
2023-02-16T20:39:05.126Z,6.77
2023-02-16T20:41:32.076Z,6.40
2023-02-16T20:43:59.202Z,7.23
2023-02-16T20:46:26.231Z,8.30
2023-02-16T20:48:53.876Z,6.80
2023-02-16T20:51:21.157Z,9.37
2023-02-16T20:53:48.452Z,6.47
2023-02-16T20:56:20.593Z,6.53
2023-02-16T20:58:49.815Z,8.60
2023-02-16T21:01:20.455Z,5.07
2023-02-16T21:03:47.403Z,5.93
2023-02-16T21:06:14.909Z,5.40
2023-02-16T21:08:41.975Z,6.03
2023-02-16T21:11:08.895Z,7.47
2023-02-16T21:13:37.469Z,7.20
2023-02-16T21:16:04.981Z,5.37
2023-02-16T21:18:32.069Z,5.33
2023-02-16T21:21:00.045Z,6.30
2023-02-16T21:23:27.109Z,4.77
2023-02-16T21:25:57.609Z,4.93
2023-02-16T21:28:24.462Z,4.60
2023-02-16T21:30:53.046Z,5.77
2023-02-16T21:33:20.155Z,7.73
2023-02-16T21:35:47.458Z,6.90
2023-02-16T21:38:14.627Z,6.87
2023-02-16T21:41:00.269Z,5.30
2023-02-16T21:43:27.126Z,5.83
2023-02-16T21:46:00.329Z,7.17
2023-02-16T21:48:46.462Z,8.73
2023-02-16T21:51:14.893Z,5.53
2023-02-16T21:53:41.850Z,6.23
2023-02-16T21:56:19.407Z,6.37
2023-02-16T21:58:47.142Z,7.53
2023-02-16T22:01:20.376Z,6.10
2023-02-16T22:03:47.650Z,6.43
2023-02-16T22:06:14.478Z,6.77
2023-02-16T22:08:41.377Z,5.73
2023-02-16T22:11:10.782Z,5.37
2023-02-16T22:13:38.871Z,7.00
2023-02-16T22:16:10.597Z,5.20
2023-02-16T22:18:39.075Z,5.90
2023-02-16T22:21:06.756Z,7.43
2023-02-16T22:23:33.684Z,5.30
2023-02-16T22:26:00.571Z,5.47
2023-02-16T22:28:27.494Z,6.67
2023-02-16T22:30:54.504Z,5.73
2023-02-16T22:33:21.406Z,6.67
2023-02-16T22:35:49.596Z,8.33
2023-02-16T22:38:16.635Z,6.57
2023-02-16T22:40:43.792Z,6.23
2023-02-16T22:43:10.627Z,7.73
2023-02-16T22:45:37.919Z,6.30
2023-02-16T22:48:05.015Z,5.70
2023-02-16T22:50:31.851Z,6.20
2023-02-16T22:53:00.051Z,5.20
2023-02-16T22:55:26.957Z,4.77
2023-02-16T22:57:53.892Z,4.93
2023-02-16T23:00:20.922Z,4.63
2023-02-16T23:02:56.647Z,7.13
2023-02-16T23:05:24.323Z,6.53
2023-02-16T23:07:51.202Z,7.43
2023-02-16T23:10:19.590Z,5.87
2023-02-16T23:12:46.499Z,5.90
2023-02-16T23:15:13.298Z,5.23
2023-02-16T23:17:40.101Z,6.27
2023-02-16T23:20:07.600Z,5.20
2023-02-16T23:22:34.502Z,6.07
2023-02-16T23:25:20.070Z,5.13
2023-02-16T23:27:48.298Z,6.00
2023-02-16T23:30:15.319Z,5.97
2023-02-16T23:32:42.228Z,6.17
2023-02-16T23:35:09.053Z,5.63
2023-02-16T23:37:35.934Z,5.10
2023-02-16T23:40:02.910Z,7.93
2023-02-16T23:42:29.794Z,6.07
2023-02-16T23:44:58.019Z,5.03
2023-02-16T23:47:25.388Z,7.20
2023-02-16T23:49:52.246Z,5.63
2023-02-16T23:52:19.118Z,5.10
2023-02-16T23:54:45.973Z,6.97
2023-02-16T23:57:12.809Z,5.37
2023-02-16T23:59:39.835Z,6.30
